createdAt,value
2022-08-26T00:01:56.800Z,15.27
2022-08-26T00:04:26.151Z,14.40
2022-08-26T00:06:55.869Z,14.32
2022-08-26T00:09:26.196Z,15.60
2022-08-26T00:11:54.876Z,15.18
2022-08-26T00:14:28.297Z,14.35
2022-08-26T00:16:59.778Z,13.57
2022-08-26T00:19:28.255Z,13.43
2022-08-26T00:21:56.292Z,13.15
2022-08-26T00:24:26.233Z,13.63
2022-08-26T00:29:22.613Z,13.68
2022-08-26T00:31:51.117Z,13.38
2022-08-26T00:34:19.244Z,14.07
2022-08-26T00:36:49.332Z,13.57
2022-08-26T00:39:20.963Z,14.20
2022-08-26T00:41:50.498Z,12.57
2022-08-26T00:46:50.188Z,11.15
2022-08-26T00:49:25.784Z,10.57
2022-08-26T00:51:56.391Z,11.25
2022-08-26T00:54:28.198Z,11.15
2022-08-26T00:57:02.009Z,9.95
2022-08-26T00:59:33.103Z,12.18
2022-08-26T01:02:02.879Z,11.95
2022-08-26T01:04:34.494Z,11.82
2022-08-26T01:07:03.616Z,12.80
2022-08-26T01:09:32.604Z,12.18
2022-08-26T01:12:04.037Z,12.45
2022-08-26T01:14:36.705Z,13.15
2022-08-26T01:17:07.370Z,12.38
2022-08-26T01:19:43.056Z,13.73
2022-08-26T01:22:17.551Z,12.20
2022-08-26T01:24:48.160Z,11.90
2022-08-26T01:27:20.655Z,11.95
2022-08-26T01:29:51.361Z,12.05
2022-08-26T01:32:24.707Z,11.68
2022-08-26T01:34:54.181Z,11.27
2022-08-26T01:37:26.920Z,12.95
2022-08-26T01:39:57.886Z,12.95
2022-08-26T01:42:28.525Z,13.52
2022-08-26T01:45:04.492Z,13.40
2022-08-26T01:47:34.653Z,13.20
2022-08-26T01:50:08.487Z,11.52
2022-08-26T01:52:39.476Z,11.90
2022-08-26T01:55:10.388Z,10.18
2022-08-26T01:57:39.326Z,13.23
2022-08-26T02:00:13.158Z,15.25
2022-08-26T02:02:47.180Z,19.45
2022-08-26T02:05:22.471Z,18.90
2022-08-26T02:07:50.927Z,20.00
2022-08-26T02:10:20.489Z,19.02
2022-08-26T02:12:48.837Z,17.40
2022-08-26T02:15:17.253Z,16.15
2022-08-26T02:17:47.308Z,15.93
2022-08-26T02:20:20.200Z,14.73
2022-08-26T02:22:48.971Z,14.13
2022-08-26T02:25:24.937Z,12.25
2022-08-26T02:27:54.588Z,12.90
2022-08-26T02:30:27.075Z,13.98
2022-08-26T02:32:56.649Z,12.45
2022-08-26T02:35:25.340Z,11.57
2022-08-26T02:37:54.042Z,13.07
2022-08-26T02:40:26.614Z,12.55
2022-08-26T02:42:55.962Z,12.63
2022-08-26T02:45:26.225Z,12.73
2022-08-26T02:47:55.713Z,11.35
2022-08-26T02:50:25.673Z,11.75
2022-08-26T02:52:54.068Z,11.20
2022-08-26T02:55:24.732Z,11.43
2022-08-26T02:57:53.104Z,11.93
2022-08-26T03:00:21.403Z,11.93
2022-08-26T03:02:50.212Z,10.40
2022-08-26T03:05:19.732Z,10.70
2022-08-26T03:07:48.375Z,11.00
2022-08-26T03:10:17.869Z,11.00
2022-08-26T03:12:48.167Z,11.20
2022-08-26T03:15:18.379Z,10.77
2022-08-26T03:17:47.916Z,10.95
2022-08-26T03:20:17.539Z,11.27
2022-08-26T03:22:46.522Z,10.95
2022-08-26T03:25:16.958Z,10.90
2022-08-26T03:27:45.248Z,11.40
2022-08-26T03:30:33.595Z,10.52
2022-08-26T03:33:02.753Z,10.38
2022-08-26T03:35:31.872Z,9.45
2022-08-26T03:38:00.561Z,11.25
2022-08-26T03:40:30.591Z,10.98
2022-08-26T03:42:59.026Z,10.02
2022-08-26T03:45:29.536Z,11.15
2022-08-26T03:47:57.867Z,9.68
2022-08-26T03:50:27.228Z,8.40
2022-08-26T03:52:56.468Z,8.43
2022-08-26T03:55:27.288Z,7.97
2022-08-26T03:57:55.985Z,7.93
2022-08-26T04:00:24.237Z,8.63
2022-08-26T04:02:54.050Z,7.57
2022-08-26T04:05:23.672Z,7.90
2022-08-26T04:07:52.586Z,8.40
2022-08-26T04:10:29.025Z,9.38
2022-08-26T04:12:58.801Z,9.23
2022-08-26T04:15:27.983Z,9.70
2022-08-26T04:17:57.739Z,9.07
2022-08-26T04:22:54.037Z,9.77
2022-08-26T04:25:22.500Z,11.25
2022-08-26T04:27:52.381Z,14.50
2022-08-26T04:30:21.235Z,13.35
2022-08-26T04:32:51.189Z,12.73
2022-08-26T04:35:25.857Z,12.00
2022-08-26T04:37:55.437Z,12.23
2022-08-26T04:40:24.072Z,13.07
2022-08-26T04:42:54.080Z,11.48
2022-08-26T04:45:22.837Z,11.63
2022-08-26T04:47:54.699Z,11.05
2022-08-26T04:50:25.743Z,11.25
2022-08-26T04:52:55.350Z,11.70
2022-08-26T04:55:38.208Z,13.63
2022-08-26T04:58:10.360Z,12.95
2022-08-26T05:00:39.053Z,13.38
2022-08-26T05:03:10.511Z,14.50
2022-08-26T05:05:41.399Z,14.05
2022-08-26T05:08:11.327Z,12.02
2022-08-26T05:10:43.561Z,13.13
2022-08-26T05:13:14.273Z,12.05
2022-08-26T05:15:44.248Z,12.45
2022-08-26T05:18:14.902Z,13.43
2022-08-26T05:20:46.489Z,13.60
2022-08-26T05:23:15.868Z,13.93
2022-08-26T05:25:46.985Z,11.73
2022-08-26T05:28:19.075Z,13.30
2022-08-26T05:30:48.012Z,13.13
2022-08-26T05:33:18.179Z,13.25
2022-08-26T05:35:48.060Z,14.43
2022-08-26T05:38:19.788Z,16.45
2022-08-26T05:40:52.560Z,15.38
2022-08-26T05:43:21.951Z,15.80
2022-08-26T05:45:51.465Z,14.00
2022-08-26T05:50:54.429Z,13.50
2022-08-26T05:53:25.917Z,13.05
2022-08-26T05:55:55.652Z,12.75
2022-08-26T05:58:24.727Z,13.32
2022-08-26T06:01:00.805Z,12.30
2022-08-26T06:03:29.728Z,13.13
2022-08-26T06:05:59.172Z,12.73
2022-08-26T06:08:28.027Z,12.95
2022-08-26T06:11:00.140Z,11.88
2022-08-26T06:13:30.360Z,12.25
2022-08-26T06:16:01.250Z,12.32
2022-08-26T06:18:32.730Z,12.98
2022-08-26T06:21:11.801Z,12.75
2022-08-26T06:23:56.623Z,13.32
2022-08-26T06:26:27.599Z,13.60
2022-08-26T06:28:55.651Z,13.50
2022-08-26T06:31:24.483Z,14.13
2022-08-26T06:33:53.890Z,13.75
2022-08-26T06:36:26.549Z,13.80
2022-08-26T06:38:56.724Z,14.32
2022-08-26T06:41:25.710Z,13.80
2022-08-26T06:43:54.064Z,15.18
2022-08-26T06:46:22.931Z,14.02
2022-08-26T06:48:51.118Z,16.23
2022-08-26T06:51:22.337Z,15.32
2022-08-26T06:53:54.641Z,16.77
2022-08-26T06:56:25.069Z,16.48
2022-08-26T06:58:55.907Z,15.95
2022-08-26T07:01:27.474Z,15.57
2022-08-26T07:03:58.285Z,16.38
2022-08-26T07:06:27.659Z,14.55
2022-08-26T07:09:04.171Z,14.23
2022-08-26T07:11:33.400Z,16.15
2022-08-26T07:14:01.883Z,15.00
2022-08-26T07:16:30.777Z,13.17
2022-08-26T07:18:59.051Z,13.27
2022-08-26T07:21:29.514Z,13.52
2022-08-26T07:24:01.438Z,14.40
2022-08-26T07:26:31.349Z,13.98
2022-08-26T07:29:00.843Z,14.75
2022-08-26T07:31:36.074Z,14.65
2022-08-26T07:34:09.299Z,15.45
2022-08-26T07:36:37.843Z,14.25
2022-08-26T07:39:07.783Z,15.03
2022-08-26T07:44:05.995Z,13.30
2022-08-26T07:46:36.580Z,14.15
2022-08-26T07:49:04.832Z,13.57
2022-08-26T07:51:33.229Z,14.15
2022-08-26T07:54:01.305Z,14.70
2022-08-26T07:56:30.741Z,14.25
2022-08-26T07:58:59.428Z,14.45
2022-08-26T08:01:29.632Z,15.35
2022-08-26T08:03:58.927Z,15.30
2022-08-26T08:06:28.356Z,17.83
2022-08-26T08:08:57.074Z,15.73
2022-08-26T08:11:27.203Z,19.50
2022-08-26T08:13:57.034Z,25.42
2022-08-26T08:16:26.265Z,27.25
2022-08-26T08:21:24.474Z,22.27
2022-08-26T08:23:53.814Z,20.40
2022-08-26T08:26:22.432Z,19.98
2022-08-26T08:28:52.189Z,19.60
2022-08-26T08:31:45.005Z,19.40
2022-08-26T08:34:11.625Z,17.25
2022-08-26T08:36:39.792Z,17.57
2022-08-26T08:39:07.981Z,17.52
2022-08-26T08:41:58.988Z,16.48
2022-08-26T08:47:06.890Z,16.75
2022-08-26T08:49:36.072Z,15.73
2022-08-26T08:52:11.848Z,15.83
2022-08-26T08:54:40.001Z,15.73
2022-08-26T08:57:14.205Z,15.32
2022-08-26T08:59:51.999Z,15.48
2022-08-26T09:02:28.374Z,14.57
2022-08-26T09:05:14.930Z,14.02
2022-08-26T09:07:49.294Z,13.60
2022-08-26T09:10:32.125Z,14.73
2022-08-26T09:13:02.457Z,13.32
2022-08-26T09:15:44.071Z,13.70
2022-08-26T09:18:25.770Z,12.98
2022-08-26T09:20:59.045Z,12.25
2022-08-26T09:23:27.746Z,13.13
2022-08-26T09:26:02.081Z,11.40
2022-08-26T09:28:31.991Z,11.75
2022-08-26T09:31:12.084Z,11.27
2022-08-26T09:33:42.721Z,11.38
2022-08-26T09:36:17.254Z,10.95
2022-08-26T09:38:46.255Z,10.90
2022-08-26T09:44:15.615Z,10.23
2022-08-26T09:46:52.316Z,9.07
2022-08-26T09:49:36.230Z,9.27
2022-08-26T09:52:20.760Z,9.77
2022-08-26T09:55:03.572Z,8.93
2022-08-26T09:57:33.936Z,8.10
2022-08-26T10:00:03.110Z,8.38
2022-08-26T10:02:41.441Z,7.32
2022-08-26T10:05:20.233Z,8.23
2022-08-26T10:07:51.789Z,7.50
2022-08-26T10:10:24.514Z,6.85
2022-08-26T10:13:03.109Z,8.50
2022-08-26T10:15:40.474Z,9.43
2022-08-26T10:18:21.059Z,8.15
2022-08-26T10:20:57.818Z,8.05
2022-08-26T10:23:30.282Z,7.70
2022-08-26T10:26:05.580Z,7.50
2022-08-26T10:28:41.200Z,7.70
2022-08-26T10:31:19.404Z,7.32
2022-08-26T10:36:52.348Z,8.40
2022-08-26T10:39:31.035Z,8.60
2022-08-26T10:42:09.541Z,7.05
2022-08-26T10:44:43.833Z,6.20
2022-08-26T10:47:18.515Z,7.30
2022-08-26T10:49:48.232Z,7.45
2022-08-26T10:52:23.300Z,7.97
2022-08-26T10:55:05.062Z,6.72
2022-08-26T10:57:44.859Z,6.63
2022-08-26T11:00:36.481Z,7.43
2022-08-26T11:03:22.462Z,7.13
2022-08-26T11:06:16.992Z,8.18
2022-08-26T11:08:49.150Z,7.40
2022-08-26T11:11:50.138Z,7.30
2022-08-26T11:14:56.149Z,8.10
2022-08-26T11:17:57.009Z,7.65
2022-08-26T11:20:36.678Z,7.05
2022-08-26T11:23:39.305Z,7.95
2022-08-26T11:26:35.524Z,14.15
2022-08-26T11:29:13.099Z,13.88
2022-08-26T11:31:56.744Z,8.85
2022-08-26T11:35:00.468Z,7.90
2022-08-26T11:37:36.197Z,6.65
2022-08-26T11:40:13.306Z,7.30
2022-08-26T11:42:45.276Z,6.97
2022-08-26T11:45:20.364Z,6.70
2022-08-26T11:47:49.498Z,7.60
2022-08-26T11:50:20.633Z,6.38
2022-08-26T11:52:53.628Z,6.13
2022-08-26T11:55:23.237Z,6.65
2022-08-26T11:57:56.693Z,6.90
2022-08-26T12:00:33.287Z,6.45
2022-08-26T12:03:07.594Z,6.40
2022-08-26T12:05:39.499Z,6.03
2022-08-26T12:08:09.885Z,6.35
2022-08-26T12:10:39.141Z,6.45
2022-08-26T12:13:09.933Z,6.25
2022-08-26T12:15:38.770Z,6.20
2022-08-26T12:18:28.783Z,6.03
2022-08-26T12:21:01.254Z,6.03
2022-08-26T12:23:41.082Z,6.85
2022-08-26T12:26:14.131Z,6.13
2022-08-26T12:28:47.656Z,5.97
2022-08-26T12:31:23.897Z,5.88
2022-08-26T12:33:53.092Z,5.75
2022-08-26T12:36:25.618Z,5.80
2022-08-26T12:38:57.602Z,5.82
2022-08-26T12:41:47.418Z,5.80
2022-08-26T12:44:53.150Z,5.85
2022-08-26T12:47:35.140Z,6.43
2022-08-26T12:50:18.042Z,6.88
2022-08-26T12:52:57.285Z,13.27
2022-08-26T12:55:35.524Z,14.82
2022-08-26T12:58:15.003Z,6.20
2022-08-26T13:00:46.510Z,8.07
2022-08-26T13:03:47.807Z,6.03
2022-08-26T13:06:25.811Z,5.88
2022-08-26T13:08:56.171Z,5.57
2022-08-26T13:11:26.943Z,5.60
2022-08-26T13:13:58.890Z,6.50
2022-08-26T13:16:28.697Z,5.82
2022-08-26T13:18:59.194Z,6.28
2022-08-26T13:21:29.345Z,6.32
2022-08-26T13:24:06.134Z,5.63
2022-08-26T13:26:35.092Z,5.78
2022-08-26T13:29:07.226Z,6.15
2022-08-26T13:31:41.226Z,6.15
2022-08-26T13:34:10.686Z,6.07
2022-08-26T13:36:39.101Z,6.60
2022-08-26T13:39:07.820Z,6.32
2022-08-26T13:41:36.219Z,7.03
2022-08-26T13:44:04.678Z,6.90
2022-08-26T13:46:32.926Z,6.53
2022-08-26T13:49:02.976Z,6.18
2022-08-26T13:51:32.656Z,6.05
2022-08-26T13:54:01.166Z,6.70
2022-08-26T13:58:59.400Z,6.97
2022-08-26T14:01:28.364Z,6.40
2022-08-26T14:03:56.784Z,7.18
2022-08-26T14:06:27.497Z,6.28
2022-08-26T14:08:55.616Z,6.65
2022-08-26T14:11:24.872Z,6.72
2022-08-26T14:13:53.055Z,6.90
2022-08-26T14:16:25.373Z,5.95
2022-08-26T14:18:53.979Z,6.50
2022-08-26T14:21:22.213Z,7.45
2022-08-26T14:23:51.657Z,6.40
2022-08-26T14:26:28.514Z,6.43
2022-08-26T14:28:57.753Z,6.77
2022-08-26T14:31:27.066Z,6.68
2022-08-26T14:33:57.352Z,6.38
2022-08-26T14:36:32.582Z,6.93
2022-08-26T14:39:05.502Z,6.90
2022-08-26T14:41:35.351Z,6.85
2022-08-26T14:44:06.381Z,7.10
2022-08-26T14:46:41.101Z,6.57
2022-08-26T14:49:10.769Z,6.38
2022-08-26T14:51:40.854Z,6.78
2022-08-26T14:54:12.611Z,6.50
2022-08-26T14:56:45.796Z,7.18
2022-08-26T14:59:15.031Z,7.15
2022-08-26T15:01:43.492Z,7.53
2022-08-26T15:04:11.765Z,7.05
2022-08-26T15:06:40.563Z,6.65
2022-08-26T15:09:10.717Z,6.85
2022-08-26T15:11:38.962Z,7.07
2022-08-26T15:14:08.176Z,7.32
2022-08-26T15:16:48.205Z,7.00
2022-08-26T15:19:16.543Z,7.07
2022-08-26T15:21:46.915Z,7.13
2022-08-26T15:24:18.553Z,6.97
2022-08-26T15:26:47.433Z,6.50
2022-08-26T15:29:15.941Z,7.10
2022-08-26T15:31:44.111Z,7.00
2022-08-26T15:34:16.465Z,7.00
2022-08-26T15:36:46.292Z,6.32
2022-08-26T15:39:17.094Z,6.47
2022-08-26T15:41:45.387Z,6.72
2022-08-26T15:44:16.123Z,7.53
2022-08-26T15:46:44.609Z,6.80
2022-08-26T15:49:17.553Z,6.75
2022-08-26T15:51:50.279Z,7.60
2022-08-26T15:54:22.534Z,7.93
2022-08-26T15:56:52.169Z,7.80
2022-08-26T15:59:22.245Z,7.55
2022-08-26T16:01:51.049Z,7.95
2022-08-26T16:04:19.271Z,7.60
2022-08-26T16:06:51.385Z,6.90
2022-08-26T16:09:24.222Z,8.00
2022-08-26T16:11:52.837Z,7.68
2022-08-26T16:14:21.359Z,8.23
2022-08-26T16:16:50.893Z,7.38
2022-08-26T16:19:19.080Z,7.65
2022-08-26T16:21:47.971Z,7.75
2022-08-26T16:24:16.130Z,6.60
2022-08-26T16:26:45.870Z,7.20
2022-08-26T16:29:16.373Z,7.13
2022-08-26T16:31:44.666Z,6.97
2022-08-26T16:34:12.733Z,6.93
2022-08-26T16:36:41.924Z,6.93
2022-08-26T16:39:10.460Z,7.07
2022-08-26T16:41:38.607Z,6.30
2022-08-26T16:44:08.870Z,6.50
2022-08-26T16:46:39.628Z,6.35
2022-08-26T16:49:07.801Z,8.32
2022-08-26T16:51:37.779Z,7.40
2022-08-26T16:54:07.302Z,7.80
2022-08-26T16:56:35.810Z,8.27
2022-08-26T16:59:04.130Z,8.73
2022-08-26T17:01:33.749Z,8.63
2022-08-26T17:04:01.900Z,9.15
2022-08-26T17:06:30.126Z,9.13
2022-08-26T17:08:58.284Z,8.23
2022-08-26T17:11:27.857Z,8.38
2022-08-26T17:13:56.877Z,8.38
2022-08-26T17:16:27.081Z,9.15
2022-08-26T17:18:57.466Z,8.77
2022-08-26T17:21:26.868Z,8.60
2022-08-26T17:23:56.239Z,9.02
2022-08-26T17:26:24.430Z,10.05
2022-08-26T17:28:52.647Z,9.73
2022-08-26T17:31:21.466Z,8.57
2022-08-26T17:33:53.465Z,9.57
2022-08-26T17:36:27.826Z,9.18
2022-08-26T17:38:57.841Z,9.00
2022-08-26T17:41:26.308Z,8.98
2022-08-26T17:43:54.498Z,7.75
2022-08-26T17:46:22.694Z,7.68
2022-08-26T17:48:50.808Z,9.15
2022-08-26T17:51:20.171Z,8.02
2022-08-26T17:53:50.483Z,7.65
2022-08-26T17:56:23.774Z,7.03
2022-08-26T17:58:52.756Z,7.50
2022-08-26T18:01:21.097Z,7.18
2022-08-26T18:03:49.393Z,6.88
2022-08-26T18:06:17.882Z,7.13
2022-08-26T18:08:46.311Z,6.93
2022-08-26T18:11:17.665Z,6.73
2022-08-26T18:13:47.499Z,6.85
2022-08-26T18:16:17.385Z,7.32
2022-08-26T18:18:46.423Z,6.47
2022-08-26T18:21:16.748Z,6.57
2022-08-26T18:23:45.392Z,6.80
2022-08-26T18:26:19.406Z,7.45
2022-08-26T18:28:47.672Z,7.70
2022-08-26T18:31:16.305Z,7.20
2022-08-26T18:33:44.883Z,7.25
2022-08-26T18:36:18.440Z,7.47
2022-08-26T18:38:47.219Z,7.25
2022-08-26T18:41:21.489Z,7.15
2022-08-26T18:43:50.441Z,7.72
2022-08-26T18:46:19.893Z,8.15
2022-08-26T18:51:20.931Z,7.55
2022-08-26T18:53:49.089Z,7.15
2022-08-26T18:56:18.632Z,7.70
2022-08-26T18:58:49.193Z,7.50
2022-08-26T19:01:18.481Z,7.47
2022-08-26T19:06:17.639Z,7.53
2022-08-26T19:08:49.860Z,7.60
2022-08-26T19:11:31.567Z,8.10
2022-08-26T19:14:02.988Z,8.10
2022-08-26T19:16:31.622Z,6.95
2022-08-26T19:19:01.359Z,7.85
2022-08-26T19:21:30.218Z,7.10
2022-08-26T19:23:59.387Z,7.40
2022-08-26T19:26:28.511Z,6.80
2022-08-26T19:28:57.623Z,6.78
2022-08-26T19:31:27.286Z,6.82
2022-08-26T19:33:56.608Z,6.43
2022-08-26T19:36:27.218Z,6.47
2022-08-26T19:38:56.846Z,7.38
2022-08-26T19:41:36.602Z,7.57
2022-08-26T19:44:08.420Z,7.28
2022-08-26T19:49:11.823Z,7.18
2022-08-26T19:51:39.939Z,8.32
2022-08-26T19:54:08.036Z,7.82
2022-08-26T19:56:36.531Z,7.80
2022-08-26T19:59:04.776Z,7.97
2022-08-26T20:01:32.913Z,7.47
2022-08-26T20:04:02.764Z,7.35
2022-08-26T20:06:30.896Z,7.65
2022-08-26T20:09:00.604Z,8.00
2022-08-26T20:11:29.331Z,8.32
2022-08-26T20:13:57.469Z,8.02
2022-08-26T20:16:25.590Z,7.50
2022-08-26T20:19:11.354Z,7.22
2022-08-26T20:21:41.286Z,7.20
2022-08-26T20:24:13.829Z,7.32
2022-08-26T20:26:43.790Z,7.85
2022-08-26T20:29:13.677Z,7.72
2022-08-26T20:31:44.011Z,7.97
2022-08-26T20:34:13.228Z,7.45
2022-08-26T20:36:43.602Z,7.70
2022-08-26T20:39:11.793Z,7.95
2022-08-26T20:41:40.656Z,7.72
2022-08-26T20:44:09.341Z,8.38
2022-08-26T20:46:37.478Z,8.25
2022-08-26T20:49:07.468Z,8.00
2022-08-26T20:51:37.249Z,8.15
2022-08-26T20:54:07.790Z,8.18
2022-08-26T20:56:36.546Z,7.50
2022-08-26T20:59:06.765Z,9.90
2022-08-26T21:01:37.841Z,9.10
2022-08-26T21:04:13.828Z,8.52
2022-08-26T21:06:52.368Z,8.70
2022-08-26T21:09:23.478Z,8.68
2022-08-26T21:11:52.260Z,8.32
2022-08-26T21:14:23.129Z,8.07
2022-08-26T21:16:54.212Z,8.55
2022-08-26T21:19:22.729Z,7.90
2022-08-26T21:21:50.783Z,7.68
2022-08-26T21:24:19.199Z,8.32
2022-08-26T21:26:48.903Z,8.25
2022-08-26T21:29:17.077Z,8.07
2022-08-26T21:31:46.792Z,9.15
2022-08-26T21:34:15.815Z,8.57
2022-08-26T21:36:43.853Z,8.52
2022-08-26T21:39:12.568Z,7.90
2022-08-26T21:41:41.237Z,8.80
2022-08-26T21:44:11.496Z,8.38
2022-08-26T21:46:39.826Z,8.55
2022-08-26T21:49:11.588Z,7.00
2022-08-26T21:51:46.473Z,8.02
2022-08-26T21:54:15.406Z,8.18
2022-08-26T21:56:46.548Z,7.57
2022-08-26T21:59:18.356Z,8.10
2022-08-26T22:01:47.198Z,9.20
2022-08-26T22:04:15.809Z,7.87
2022-08-26T22:06:46.148Z,9.30
2022-08-26T22:09:16.469Z,8.27
2022-08-26T22:11:46.265Z,7.60
2022-08-26T22:14:17.641Z,8.40
2022-08-26T22:16:50.264Z,8.48
2022-08-26T22:19:19.856Z,7.85
2022-08-26T22:21:49.372Z,7.60
2022-08-26T22:26:45.733Z,8.07
2022-08-26T22:29:15.529Z,7.43
2022-08-26T22:31:43.855Z,7.57
2022-08-26T22:34:15.624Z,8.07
2022-08-26T22:36:46.345Z,8.52
2022-08-26T22:39:15.740Z,7.97
2022-08-26T22:44:13.006Z,8.65
2022-08-26T22:46:43.763Z,9.65
2022-08-26T22:49:15.738Z,8.38
2022-08-26T22:51:44.325Z,8.75
2022-08-26T22:54:12.682Z,8.00
2022-08-26T22:56:41.284Z,8.13
2022-08-26T22:59:10.052Z,8.60
2022-08-26T23:01:40.083Z,7.57
2022-08-26T23:04:10.936Z,9.25
2022-08-26T23:06:42.978Z,8.13
2022-08-26T23:09:12.172Z,8.95
2022-08-26T23:11:43.839Z,8.40
2022-08-26T23:14:12.472Z,9.05
2022-08-26T23:19:13.287Z,8.20
2022-08-26T23:21:41.959Z,7.82
2022-08-26T23:24:10.739Z,8.48
2022-08-26T23:26:41.960Z,8.57
2022-08-26T23:29:11.855Z,9.00
2022-08-26T23:31:41.742Z,8.23
2022-08-26T23:34:29.385Z,9.20
2022-08-26T23:36:58.971Z,8.83
2022-08-26T23:39:28.412Z,9.55
2022-08-26T23:41:56.885Z,9.20
2022-08-26T23:44:26.674Z,8.82
2022-08-26T23:46:55.038Z,8.85
2022-08-26T23:49:25.600Z,9.50
2022-08-26T23:52:11.460Z,10.27
2022-08-26T23:54:40.118Z,9.23
2022-08-26T23:57:09.282Z,9.15
2022-08-26T23:59:38.701Z,9.10
